MDJB

La Isabela International Airport

La Isabela, Dominican Republic
TAF MDJB 251600Z 2518/2618 13010KT 9999 SCT023 PROB30 2518/2600 7000 -TSRA FEW020CB SCT024
Issued Valid From Valid To
Sep-25 @ 16:00 UTC
(2 hours ago)
Sep-25 @ 18:00 UTC
(in 15 minutes)
Sep-26 @ 18:00 UTC
(in 24 hours)
Sep-25 @ 18:00 to Sep-26 @ 18:00
TAF MDJB 251600Z 2518/2618 13010KT 9999 SCT023
Wind Visibility Clouds
130° at 10 knots 10,000+ meters
  • Scattered at 2,300' AGL
Probable  (Probability 30%) Sep-25 @ 18:00 to Sep-26 @ 00:00
PROB30 2518/2600 7000 -TSRA FEW020CB SCT024
Visibility Clouds Conditions
7,001 meters
  • Few at 2,000' AGL
  • Scattered at 2,400' AGL
  • Light Thunderstorm
  • Light Rain
TAF MDJB 251600Z 2518/2618 13010KT 9999 SCT023 PROB30 2518/2600 7000 -TSRA FEW020CB SCT024
Issued Sep-25 @ 16:00 UTC
(2 hours ago)
Valid From Sep-25 @ 18:00 UTC
(in 15 minutes)
Valid To Sep-26 @ 18:00 UTC
(in 24 hours)
Sep-25 @ 18:00 - Sep-26 @ 18:00
Wind Visibility
130° at 10 knots 10,000+ meters
Clouds
  • Scattered at 2,300' AGL
Probability 30% Probable Sep-25 @ 18:00 - Sep-26 @ 00:00
Clouds
  • Few at 2,000' AGL
  • Scattered at 2,400' AGL
Conditions
  • Light Thunderstorm
  • Light Rain